createdAt,value
2023-02-25T00:00:49.299Z,47.53
2023-02-25T00:02:03.015Z,46.31
2023-02-25T00:02:50.179Z,46.63
2023-02-25T00:04:48.888Z,47.72
2023-02-25T00:05:48.760Z,47.50
2023-02-25T00:06:48.649Z,47.41
2023-02-25T00:28:46.813Z,46.43
2023-02-25T00:31:46.835Z,45.20
2023-02-25T00:32:46.561Z,48.44
2023-02-25T00:33:46.412Z,48.54
2023-02-25T00:34:46.314Z,48.81
2023-02-25T00:35:46.239Z,48.71
2023-02-25T00:36:46.271Z,48.24
2023-02-25T00:37:46.102Z,48.33
2023-02-25T00:38:46.019Z,48.23
2023-02-25T00:39:46.042Z,48.27
2023-02-25T00:55:44.804Z,48.61
2023-02-25T00:56:44.735Z,48.21
2023-02-25T00:57:44.659Z,49.02
2023-02-25T00:58:44.598Z,48.50
2023-02-25T00:59:44.549Z,49.92
2023-02-25T01:00:51.560Z,49.04
2023-02-25T01:01:45.328Z,49.23
2023-02-25T01:02:44.206Z,49.46
2023-02-25T01:03:44.587Z,49.30
2023-02-25T01:04:43.965Z,47.24
2023-02-25T01:05:43.844Z,50.35
2023-02-25T01:06:44.094Z,53.04
2023-02-25T01:07:43.614Z,52.52
2023-02-25T01:08:43.497Z,48.35
2023-02-25T01:09:43.372Z,47.97
2023-02-25T01:10:43.288Z,48.51
2023-02-25T01:11:43.164Z,50.06
2023-02-25T01:12:43.038Z,48.35
2023-02-25T01:13:43.081Z,47.78
2023-02-25T01:14:42.864Z,49.68
2023-02-25T01:15:42.821Z,46.74
2023-02-25T01:16:42.705Z,48.74
2023-02-25T01:17:43.093Z,47.68
2023-02-25T01:18:42.568Z,48.05
2023-02-25T01:19:42.504Z,49.98
2023-02-25T01:20:42.416Z,45.49
2023-02-25T01:21:42.394Z,44.65
2023-02-25T01:22:42.267Z,50.78
2023-02-25T01:23:42.207Z,46.85
2023-02-25T01:24:42.117Z,49.28
2023-02-25T01:25:42.089Z,51.43
2023-02-25T01:26:41.972Z,48.87
2023-02-25T01:27:41.909Z,49.37
2023-02-25T01:28:41.817Z,49.51
2023-02-25T01:29:41.748Z,47.10
2023-02-25T01:30:41.681Z,50.55
2023-02-25T01:31:41.794Z,50.88
2023-02-25T01:32:41.750Z,48.60
2023-02-25T01:33:41.454Z,48.16
2023-02-25T01:34:41.389Z,49.37
2023-02-25T01:35:41.305Z,48.42
2023-02-25T01:36:41.248Z,46.54
2023-02-25T01:37:41.156Z,50.30
2023-02-25T01:38:41.087Z,48.89
2023-02-25T01:39:41.011Z,49.99
2023-02-25T01:40:40.936Z,49.73
2023-02-25T01:41:40.905Z,49.98
2023-02-25T01:42:40.792Z,48.75
2023-02-25T01:43:40.726Z,50.56
2023-02-25T01:44:40.648Z,50.14
2023-02-25T01:45:40.572Z,50.75
2023-02-25T01:46:40.567Z,49.40
2023-02-25T01:47:40.433Z,51.76
2023-02-25T01:48:40.364Z,49.58
2023-02-25T01:49:40.299Z,51.02
2023-02-25T01:50:40.227Z,51.02
2023-02-25T01:51:40.149Z,50.36
2023-02-25T01:52:40.070Z,52.51
2023-02-25T01:53:39.991Z,50.13
2023-02-25T01:54:39.921Z,48.86
2023-02-25T01:55:39.846Z,52.33
2023-02-25T01:56:40.111Z,51.61
2023-02-25T01:57:39.696Z,51.09
2023-02-25T01:58:39.628Z,48.67
2023-02-25T01:59:39.545Z,52.14
2023-02-25T02:00:40.198Z,49.37
2023-02-25T02:01:39.609Z,49.32
2023-02-25T02:02:39.377Z,48.76
2023-02-25T02:03:39.260Z,49.97
2023-02-25T02:04:39.186Z,48.80
2023-02-25T02:05:40.106Z,50.41
2023-02-25T02:06:39.116Z,50.84
2023-02-25T02:07:38.958Z,48.10
2023-02-25T02:08:38.907Z,50.52
2023-02-25T02:09:38.897Z,49.01
2023-02-25T02:10:38.734Z,50.91
2023-02-25T02:11:38.667Z,52.22
2023-02-25T02:12:38.606Z,49.23
2023-02-25T02:13:38.517Z,49.91
2023-02-25T02:14:38.444Z,50.20
2023-02-25T02:15:38.384Z,51.43
2023-02-25T02:16:38.353Z,51.61
2023-02-25T02:17:38.232Z,49.54
2023-02-25T02:18:38.162Z,51.96
2023-02-25T02:19:38.092Z,48.35
2023-02-25T02:20:38.010Z,50.32
2023-02-25T02:21:37.942Z,52.38
2023-02-25T02:22:37.874Z,50.36
2023-02-25T02:23:37.792Z,51.92
2023-02-25T02:24:37.727Z,50.11
2023-02-25T02:25:37.649Z,51.13
2023-02-25T02:26:37.574Z,51.43
2023-02-25T02:27:37.499Z,50.99
2023-02-25T02:28:38.122Z,50.74
2023-02-25T02:29:37.354Z,49.41
2023-02-25T02:30:37.361Z,48.83
2023-02-25T02:31:37.247Z,50.78
2023-02-25T02:32:37.185Z,50.58
2023-02-25T02:33:37.073Z,51.63
2023-02-25T02:34:37.003Z,49.14
2023-02-25T02:35:36.927Z,50.33
2023-02-25T02:36:36.839Z,50.33
2023-02-25T02:37:36.765Z,52.37
2023-02-25T02:38:36.699Z,51.46
2023-02-25T02:39:36.618Z,48.38
2023-02-25T02:40:36.552Z,52.87
2023-02-25T02:41:36.472Z,50.74
2023-02-25T02:42:36.449Z,49.86
2023-02-25T02:43:36.320Z,52.03
2023-02-25T02:44:36.241Z,50.11
2023-02-25T02:45:36.226Z,51.67
2023-02-25T02:46:36.096Z,50.22
2023-02-25T02:47:36.115Z,50.30
2023-02-25T02:48:35.944Z,49.25
2023-02-25T02:49:35.869Z,50.02
2023-02-25T02:50:35.794Z,52.76
2023-02-25T02:51:35.710Z,51.06
2023-02-25T02:52:35.645Z,51.69
2023-02-25T02:53:35.577Z,50.56
2023-02-25T02:54:35.479Z,50.46
2023-02-25T02:55:35.411Z,48.15
2023-02-25T02:56:35.338Z,49.63
2023-02-25T02:57:35.620Z,49.69
2023-02-25T02:58:35.206Z,50.73
2023-02-25T02:59:35.155Z,51.09
2023-02-25T03:00:35.033Z,49.67
2023-02-25T03:01:35.060Z,49.90
2023-02-25T03:02:34.883Z,52.36
2023-02-25T03:03:34.830Z,48.82
2023-02-25T03:04:34.752Z,49.61
2023-02-25T03:05:34.646Z,49.13
2023-02-25T03:06:34.579Z,49.32
2023-02-25T03:07:34.564Z,48.86
2023-02-25T03:08:34.406Z,48.86
2023-02-25T03:09:34.364Z,52.29
2023-02-25T03:10:34.256Z,51.40
2023-02-25T03:11:34.158Z,49.80
2023-02-25T03:12:34.081Z,50.94
2023-02-25T03:13:33.993Z,49.80
2023-02-25T03:14:33.921Z,49.35
2023-02-25T03:15:33.839Z,50.77
2023-02-25T03:16:33.796Z,47.14
2023-02-25T03:17:33.692Z,52.19
2023-02-25T03:18:34.123Z,50.29
2023-02-25T03:19:33.534Z,50.87
2023-02-25T03:20:33.457Z,50.33
2023-02-25T03:21:33.389Z,50.20
2023-02-25T03:22:33.310Z,49.21
2023-02-25T03:23:33.241Z,51.42
2023-02-25T03:24:33.146Z,48.91
2023-02-25T03:25:33.075Z,49.83
2023-02-25T03:26:32.991Z,51.44
2023-02-25T03:27:32.921Z,49.43
2023-02-25T03:28:32.835Z,49.45
2023-02-25T03:29:32.755Z,49.34
2023-02-25T03:30:32.679Z,47.40
2023-02-25T03:31:32.603Z,49.52
2023-02-25T03:32:34.417Z,48.98
2023-02-25T03:33:32.395Z,52.03
2023-02-25T03:34:32.291Z,49.84
2023-02-25T03:35:32.177Z,48.95
2023-02-25T03:36:32.074Z,50.00
2023-02-25T03:37:31.949Z,47.69
2023-02-25T03:38:32.139Z,49.48
2023-02-25T03:39:32.135Z,47.97
2023-02-25T03:40:31.620Z,49.96
2023-02-25T03:41:31.504Z,49.83
2023-02-25T03:42:31.405Z,49.36
2023-02-25T03:43:31.291Z,49.25
2023-02-25T03:44:31.187Z,48.74
2023-02-25T03:45:31.066Z,50.49
2023-02-25T03:46:31.122Z,50.85
2023-02-25T03:47:30.876Z,48.25
2023-02-25T03:48:30.756Z,47.34
2023-02-25T03:49:30.659Z,51.60
2023-02-25T03:50:30.532Z,50.90
2023-02-25T03:51:30.428Z,48.81
2023-02-25T03:52:30.356Z,49.13
2023-02-25T03:53:30.211Z,48.73
2023-02-25T03:54:30.636Z,48.65
2023-02-25T03:55:29.960Z,51.63
2023-02-25T03:56:29.853Z,48.62
2023-02-25T03:57:29.830Z,48.23
2023-02-25T03:58:29.616Z,48.21
2023-02-25T03:59:29.523Z,49.88
2023-02-25T04:00:29.406Z,49.43
2023-02-25T04:01:29.289Z,49.42
2023-02-25T04:02:29.201Z,49.01
2023-02-25T04:03:29.057Z,50.97
2023-02-25T04:04:29.019Z,48.05
2023-02-25T04:05:28.845Z,48.34
2023-02-25T04:06:28.712Z,51.20
2023-02-25T04:07:28.607Z,52.35
2023-02-25T04:08:28.560Z,50.05
2023-02-25T04:09:28.448Z,51.62
2023-02-25T04:10:28.342Z,47.77
2023-02-25T04:11:28.152Z,50.76
2023-02-25T04:12:28.038Z,47.54
2023-02-25T04:13:27.928Z,50.75
2023-02-25T04:14:27.841Z,49.37
2023-02-25T04:15:27.756Z,48.54
2023-02-25T04:16:27.589Z,49.01
2023-02-25T04:17:28.137Z,50.37
2023-02-25T04:18:27.353Z,52.23
2023-02-25T04:19:27.245Z,48.84
2023-02-25T04:20:27.127Z,48.84
2023-02-25T04:21:27.036Z,47.39
2023-02-25T04:22:26.925Z,49.15
2023-02-25T04:23:26.804Z,49.01
2023-02-25T04:24:26.676Z,49.91
2023-02-25T04:25:26.572Z,50.45
2023-02-25T04:26:26.460Z,45.65
2023-02-25T04:27:26.332Z,48.51
2023-02-25T04:28:27.146Z,49.32
2023-02-25T04:29:26.122Z,49.64
2023-02-25T04:30:26.047Z,50.25
2023-02-25T04:40:26.143Z,49.89
2023-02-25T04:42:25.083Z,48.74
2023-02-25T04:43:24.997Z,46.99
2023-02-25T04:44:24.920Z,49.00
2023-02-25T04:45:26.755Z,49.44
2023-02-25T04:46:25.134Z,47.37
2023-02-25T04:47:24.741Z,46.48
2023-02-25T04:48:24.600Z,50.32
2023-02-25T04:49:24.539Z,49.39
2023-02-25T04:50:24.457Z,46.48
2023-02-25T04:51:24.379Z,45.26
2023-02-25T04:52:24.312Z,48.90
2023-02-25T04:54:24.222Z,48.43
2023-02-25T04:55:24.100Z,50.55
2023-02-25T04:56:24.402Z,48.59
2023-02-25T06:06:19.152Z,46.20
2023-02-25T06:07:19.073Z,48.04
2023-02-25T06:08:19.018Z,47.12
2023-02-25T06:09:18.946Z,47.74
2023-02-25T06:10:18.880Z,47.97
2023-02-25T06:11:18.809Z,47.80
2023-02-25T06:12:18.739Z,49.74
2023-02-25T06:13:18.676Z,44.66
2023-02-25T06:14:18.595Z,46.99
2023-02-25T06:15:18.610Z,46.52
2023-02-25T06:16:18.504Z,45.57
2023-02-25T06:17:18.472Z,45.89
2023-02-25T06:18:18.324Z,46.75
2023-02-25T06:19:18.260Z,47.89
2023-02-25T06:20:18.199Z,48.31
2023-02-25T06:21:18.129Z,46.99
2023-02-25T06:22:18.035Z,47.34
2023-02-25T06:23:17.979Z,47.34
2023-02-25T06:24:17.898Z,47.60
2023-02-25T06:25:17.839Z,46.51
2023-02-25T06:26:17.764Z,47.54
2023-02-25T06:27:17.702Z,46.61
2023-02-25T06:28:17.628Z,47.21
2023-02-25T06:29:17.554Z,46.61
2023-02-25T06:30:17.476Z,46.76
2023-02-25T06:31:17.477Z,46.24
2023-02-25T06:32:17.451Z,46.52
2023-02-25T06:33:17.271Z,48.16
2023-02-25T06:34:17.192Z,46.48
2023-02-25T06:35:17.121Z,46.36
2023-02-25T06:36:17.054Z,45.98
2023-02-25T06:37:16.968Z,46.10
2023-02-25T06:38:16.914Z,47.22
2023-02-25T06:39:16.841Z,45.80
2023-02-25T06:40:16.761Z,46.04
2023-02-25T06:41:16.755Z,48.17
2023-02-25T06:42:16.618Z,45.41
2023-02-25T06:43:16.546Z,46.47
2023-02-25T06:44:16.463Z,47.82
2023-02-25T06:45:16.392Z,46.77
2023-02-25T06:46:17.215Z,47.59
2023-02-25T06:47:16.251Z,44.41
2023-02-25T06:48:16.176Z,47.67
2023-02-25T06:49:16.100Z,46.53
2023-02-25T06:50:16.038Z,46.73
2023-02-25T06:51:15.958Z,45.09
2023-02-25T08:16:10.101Z,45.61
2023-02-25T08:17:09.960Z,46.11
2023-02-25T08:18:09.890Z,46.04
2023-02-25T08:19:09.830Z,47.76
2023-02-25T08:20:09.741Z,45.03
2023-02-25T08:21:09.733Z,43.73
2023-02-25T08:22:09.598Z,44.61
2023-02-25T08:23:09.535Z,44.56
2023-02-25T08:24:09.467Z,44.87
2023-02-25T08:25:10.210Z,43.20
2023-02-25T08:26:09.321Z,44.39
2023-02-25T08:27:09.258Z,46.21
2023-02-25T08:28:09.183Z,43.09
2023-02-25T08:29:09.113Z,45.47
2023-02-25T08:30:09.024Z,43.18
2023-02-25T08:31:09.060Z,44.75
2023-02-25T08:32:09.056Z,44.69
2023-02-25T08:33:08.830Z,42.96
2023-02-25T08:34:08.745Z,45.63
2023-02-25T08:35:08.756Z,44.51
2023-02-25T08:36:08.612Z,43.42
2023-02-25T08:37:08.530Z,43.89
2023-02-25T08:38:08.458Z,44.97
2023-02-25T08:39:08.391Z,42.45
2023-02-25T08:40:08.310Z,45.29
2023-02-25T08:41:08.251Z,41.89
2023-02-25T08:42:08.168Z,44.49
2023-02-25T08:43:08.095Z,45.63
2023-02-25T08:44:08.046Z,43.15
2023-02-25T08:45:07.959Z,43.23
2023-02-25T09:00:06.832Z,45.08
2023-02-25T09:01:06.761Z,43.30
2023-02-25T09:02:06.665Z,44.34
2023-02-25T09:03:06.593Z,43.31
2023-02-25T09:04:06.546Z,45.40
2023-02-25T09:05:06.463Z,40.92
2023-02-25T09:06:06.355Z,43.73
2023-02-25T09:07:06.281Z,45.01
2023-02-25T09:08:06.202Z,42.43
2023-02-25T09:09:06.155Z,43.43
2023-02-25T09:10:06.037Z,43.14
2023-02-25T09:11:05.975Z,44.08
2023-02-25T10:13:00.856Z,42.93
2023-02-25T10:14:00.755Z,42.36
2023-02-25T10:15:01.066Z,42.03
2023-02-25T10:16:00.591Z,43.30
2023-02-25T10:17:00.580Z,42.98
2023-02-25T10:18:00.421Z,44.79
2023-02-25T10:19:00.339Z,43.22
2023-02-25T10:20:00.257Z,38.47
2023-02-25T10:21:00.183Z,42.74
2023-02-25T10:22:00.155Z,44.46
2023-02-25T10:23:00.015Z,42.12
2023-02-25T10:23:59.931Z,43.76
2023-02-25T10:24:59.851Z,41.50
2023-02-25T10:25:59.832Z,39.81
2023-02-25T10:26:59.671Z,41.97
2023-02-25T10:27:59.573Z,43.62
2023-02-25T10:28:59.514Z,42.87
2023-02-25T10:29:59.415Z,44.09
2023-02-25T10:30:59.505Z,43.98
2023-02-25T10:31:59.486Z,44.82
2023-02-25T10:32:59.212Z,39.44
2023-02-25T10:48:57.902Z,41.08
2023-02-25T10:49:57.807Z,41.37
2023-02-25T10:50:57.711Z,35.99
2023-02-25T10:51:57.634Z,35.93
2023-02-25T10:52:57.546Z,42.49
2023-02-25T10:53:57.473Z,42.29
2023-02-25T10:54:57.369Z,40.86
2023-02-25T10:55:57.284Z,42.04
2023-02-25T10:56:57.214Z,43.13
2023-02-25T10:57:57.109Z,40.32
2023-02-25T10:58:57.028Z,42.29
2023-02-25T10:59:56.948Z,44.34
2023-02-25T11:00:56.864Z,42.49
2023-02-25T11:01:56.867Z,43.48
2023-02-25T11:02:56.809Z,45.12
2023-02-25T11:03:56.626Z,41.34
2023-02-25T11:04:56.580Z,40.29
2023-02-25T11:05:56.458Z,43.28
2023-02-25T11:06:56.758Z,38.31
2023-02-25T11:07:56.287Z,36.39
2023-02-25T11:08:56.219Z,42.85
2023-02-25T11:09:56.112Z,42.21
2023-02-25T11:10:56.036Z,39.40
2023-02-25T11:11:55.952Z,38.31
2023-02-25T11:21:55.053Z,41.41
2023-02-25T11:22:54.959Z,38.48
2023-02-25T11:23:54.895Z,40.88
2023-02-25T11:24:54.785Z,39.90
2023-02-25T11:25:54.691Z,40.98
2023-02-25T11:26:54.641Z,42.80
2023-02-25T11:27:54.518Z,41.89
2023-02-25T11:28:54.428Z,42.42
2023-02-25T11:29:54.344Z,40.53
2023-02-25T11:30:54.450Z,39.08
2023-02-25T11:31:54.344Z,39.07
2023-02-25T11:32:54.157Z,41.65
2023-02-25T11:33:53.988Z,36.02
2023-02-25T11:34:53.885Z,38.44
2023-02-25T11:35:53.803Z,40.73
2023-02-25T11:36:53.728Z,39.39
2023-02-25T11:37:53.627Z,36.18
2023-02-25T11:38:53.553Z,37.00
2023-02-25T11:39:53.458Z,38.37
2023-02-25T11:40:53.770Z,36.48
2023-02-25T11:41:53.280Z,38.83
2023-02-25T11:42:53.191Z,41.78
2023-02-25T11:43:53.091Z,39.78
2023-02-25T11:44:53.027Z,32.97
2023-02-25T11:45:52.919Z,42.68
2023-02-25T11:46:52.920Z,40.73
2023-02-25T11:47:52.749Z,39.41
2023-02-25T11:48:52.658Z,36.88
2023-02-25T11:49:52.559Z,39.09
2023-02-25T11:50:52.458Z,40.26
2023-02-25T11:51:52.370Z,42.93
2023-02-25T11:52:52.287Z,38.99
2023-02-25T11:53:52.293Z,36.44
2023-02-25T11:54:52.085Z,37.44
2023-02-25T11:55:52.003Z,34.52
2023-02-25T11:56:51.975Z,38.83
2023-02-25T11:57:51.822Z,40.06
2023-02-25T11:58:51.707Z,38.63
2023-02-25T11:59:51.633Z,41.33
2023-02-25T12:00:51.551Z,36.92
2023-02-25T12:01:51.464Z,36.91
2023-02-25T12:02:51.451Z,38.53
2023-02-25T12:03:51.371Z,39.72
2023-02-25T12:04:51.201Z,39.34
2023-02-25T12:05:51.157Z,41.08
2023-02-25T12:06:51.032Z,35.54
2023-02-25T12:08:05.112Z,39.31
2023-02-25T12:08:51.833Z,39.54
2023-02-25T12:09:50.791Z,38.57
2023-02-25T12:10:50.598Z,37.96
2023-02-25T12:11:50.487Z,39.80
2023-02-25T12:12:50.366Z,37.82
2023-02-25T12:13:50.319Z,38.95
2023-02-25T12:14:50.152Z,38.51
2023-02-25T12:15:50.094Z,40.41
2023-02-25T12:16:49.934Z,39.66
2023-02-25T12:17:49.849Z,39.73
2023-02-25T12:18:49.715Z,36.51
2023-02-25T12:19:49.592Z,37.57
2023-02-25T12:20:49.484Z,37.20
2023-02-25T12:21:49.365Z,35.74
2023-02-25T12:22:49.245Z,39.68
2023-02-25T12:23:49.139Z,39.11
2023-02-25T12:24:49.013Z,30.88
2023-02-25T12:25:48.901Z,37.49
2023-02-25T12:26:48.781Z,38.63
2023-02-25T12:27:48.668Z,38.05
2023-02-25T12:28:49.870Z,36.20
2023-02-25T12:29:48.427Z,36.41
2023-02-25T12:30:48.345Z,35.67
2023-02-25T12:31:48.347Z,37.83
2023-02-25T12:32:48.157Z,40.57
2023-02-25T12:33:48.061Z,39.81
2023-02-25T12:34:47.981Z,39.15
2023-02-25T12:35:47.889Z,36.49
2023-02-25T12:36:48.786Z,35.09
2023-02-25T12:37:47.798Z,34.55
2023-02-25T12:38:47.624Z,30.56
2023-02-25T12:39:47.527Z,35.67
2023-02-25T12:40:47.433Z,37.06
2023-02-25T12:41:47.338Z,37.62
2023-02-25T12:42:47.250Z,38.49
2023-02-25T12:43:47.164Z,36.03
2023-02-25T12:44:47.080Z,36.11
2023-02-25T12:45:47.006Z,35.14
2023-02-25T12:46:46.952Z,37.02
2023-02-25T12:47:46.797Z,37.19
2023-02-25T12:48:46.758Z,27.67
2023-02-25T12:49:46.599Z,38.81
2023-02-25T12:50:46.493Z,31.29
2023-02-25T12:51:46.396Z,28.44
2023-02-25T12:52:46.308Z,32.50
2023-02-25T12:53:46.219Z,32.65
2023-02-25T12:54:46.288Z,33.41
2023-02-25T12:55:46.028Z,38.01
2023-02-25T12:56:45.933Z,38.09
2023-02-25T12:57:45.836Z,31.88
2023-02-25T12:58:45.773Z,31.83
2023-02-25T12:59:45.778Z,32.74
2023-02-25T13:00:45.602Z,36.49
2023-02-25T13:01:45.501Z,30.07
2023-02-25T13:02:45.378Z,36.87
2023-02-25T13:03:45.351Z,36.99
2023-02-25T13:04:45.226Z,35.85
2023-02-25T13:05:45.123Z,36.41
2023-02-25T13:06:45.034Z,35.39
2023-02-25T13:07:44.963Z,32.42
2023-02-25T13:08:44.883Z,36.91
2023-02-25T13:09:44.795Z,33.96
2023-02-25T13:10:44.705Z,37.87
2023-02-25T13:12:10.114Z,36.16
2023-02-25T13:12:45.505Z,36.40
2023-02-25T13:13:44.388Z,36.30
2023-02-25T13:14:44.281Z,36.32
2023-02-25T13:15:44.168Z,36.71
2023-02-25T13:16:44.156Z,35.44
2023-02-25T13:17:43.933Z,33.09
2023-02-25T13:18:43.830Z,35.91
2023-02-25T13:19:43.711Z,34.06
2023-02-25T13:20:43.610Z,37.09
2023-02-25T13:21:43.483Z,36.08
2023-02-25T13:22:43.369Z,33.03
2023-02-25T13:23:43.244Z,37.57
2023-02-25T13:24:43.141Z,33.71
2023-02-25T13:25:43.032Z,37.07
2023-02-25T13:26:42.915Z,33.94
2023-02-25T13:27:42.856Z,37.87
2023-02-25T13:28:42.779Z,37.29
2023-02-25T13:29:42.586Z,34.07
2023-02-25T13:30:42.510Z,34.09
2023-02-25T13:31:42.531Z,35.44
2023-02-25T13:32:42.356Z,34.42
2023-02-25T13:33:42.158Z,34.67
2023-02-25T13:34:42.133Z,35.16
2023-02-25T13:35:42.006Z,34.94
2023-02-25T13:36:41.918Z,35.96
2023-02-25T13:37:41.851Z,36.11
2023-02-25T13:38:41.766Z,35.56
2023-02-25T13:39:42.288Z,37.04
2023-02-25T13:40:41.603Z,36.05
2023-02-25T13:41:41.504Z,35.00
2023-02-25T13:42:41.419Z,36.62
2023-02-25T13:43:41.341Z,34.74
2023-02-25T13:44:41.252Z,32.73
2023-02-25T13:45:41.217Z,34.98
2023-02-25T13:46:41.089Z,35.91
2023-02-25T13:47:41.004Z,33.51
2023-02-25T13:48:40.913Z,35.44
2023-02-25T13:49:40.841Z,36.21
2023-02-25T13:50:40.746Z,34.81
2023-02-25T13:51:40.678Z,32.89
2023-02-25T13:52:40.686Z,35.28
2023-02-25T13:53:40.490Z,35.30
2023-02-25T13:54:40.477Z,32.03
2023-02-25T13:55:40.333Z,36.63
2023-02-25T13:56:40.252Z,35.69
2023-02-25T13:57:40.146Z,34.26
2023-02-25T13:58:40.079Z,36.22
2023-02-25T13:59:39.998Z,36.11
2023-02-25T14:00:39.884Z,36.50
2023-02-25T14:01:39.824Z,35.70
2023-02-25T14:02:39.804Z,35.72
2023-02-25T14:03:39.618Z,36.21
2023-02-25T14:04:39.540Z,34.41
2023-02-25T14:05:39.457Z,33.88
2023-02-25T14:06:39.436Z,35.71
2023-02-25T14:07:39.283Z,34.79
2023-02-25T14:08:39.244Z,37.55
2023-02-25T14:09:39.091Z,37.00
2023-02-25T14:10:39.037Z,35.11
2023-02-25T14:11:38.921Z,36.23
2023-02-25T14:12:39.821Z,37.48
2023-02-25T14:13:38.797Z,35.96
2023-02-25T14:14:38.665Z,28.83
2023-02-25T14:15:38.588Z,34.47
2023-02-25T14:16:38.487Z,37.89
2023-02-25T14:17:38.415Z,36.40
2023-02-25T14:18:38.314Z,33.13
2023-02-25T14:19:38.243Z,35.12
2023-02-25T14:20:38.150Z,36.07
2023-02-25T14:21:38.056Z,35.96
2023-02-25T14:22:38.072Z,35.38
2023-02-25T14:23:37.977Z,35.52
2023-02-25T14:24:37.978Z,36.73
2023-02-25T14:25:37.854Z,29.86
2023-02-25T14:26:37.733Z,36.32
2023-02-25T14:27:37.734Z,35.62
2023-02-25T14:28:37.563Z,36.11
2023-02-25T14:29:37.485Z,36.49
2023-02-25T14:30:37.421Z,35.90
2023-02-25T14:31:37.404Z,36.35
2023-02-25T14:32:37.328Z,33.09
2023-02-25T14:33:37.229Z,36.03
2023-02-25T14:34:37.066Z,34.43
2023-02-25T14:35:36.973Z,36.39
2023-02-25T14:36:36.896Z,35.57
2023-02-25T14:37:36.814Z,36.73
2023-02-25T14:38:36.739Z,33.63
2023-02-25T14:39:36.660Z,33.03
2023-02-25T14:40:36.570Z,32.80
2023-02-25T14:41:36.482Z,34.47
2023-02-25T14:42:36.402Z,33.59
2023-02-25T14:43:36.312Z,34.66
2023-02-25T14:44:36.235Z,34.01
2023-02-25T14:45:36.142Z,33.53
2023-02-25T14:46:36.074Z,35.63
2023-02-25T14:47:35.990Z,33.71
2023-02-25T15:48:31.411Z,29.44
2023-02-25T15:49:31.450Z,31.04
2023-02-25T15:51:31.188Z,29.43
2023-02-25T15:52:31.110Z,29.92
2023-02-25T15:53:31.035Z,31.34
2023-02-25T15:54:30.962Z,30.17
2023-02-25T15:55:30.892Z,31.36
2023-02-25T15:56:30.812Z,33.91
2023-02-25T15:57:30.749Z,31.31
2023-02-25T15:58:30.705Z,33.03
2023-02-25T15:59:30.604Z,30.52
2023-02-25T16:00:30.593Z,32.13
2023-02-25T16:01:30.885Z,32.55
2023-02-25T16:02:30.471Z,30.00
2023-02-25T16:03:30.312Z,33.69
2023-02-25T16:04:30.256Z,27.02
2023-02-25T16:05:30.174Z,33.97
2023-02-25T16:06:30.144Z,32.38
2023-02-25T16:07:30.034Z,31.90
2023-02-25T16:08:29.980Z,31.91
2023-02-25T16:09:29.910Z,30.93
2023-02-25T16:10:29.842Z,31.47
2023-02-25T16:11:29.782Z,30.72
2023-02-25T16:12:29.803Z,30.34
2023-02-25T16:13:29.696Z,31.21
2023-02-25T16:14:29.635Z,29.34
2023-02-25T16:15:29.484Z,29.06
2023-02-25T16:16:29.492Z,29.90
2023-02-25T16:17:29.347Z,31.75
2023-02-25T16:18:29.296Z,32.41
2023-02-25T16:19:29.201Z,30.94
2023-02-25T16:20:29.129Z,30.47
2023-02-25T16:21:29.068Z,30.71
2023-02-25T16:22:28.996Z,29.87
2023-02-25T16:23:28.937Z,27.66
2023-02-25T16:24:28.870Z,30.54
2023-02-25T16:25:28.791Z,29.53
2023-02-25T16:26:28.736Z,30.94
2023-02-25T16:27:28.668Z,29.68
2023-02-25T16:28:28.628Z,29.17
2023-02-25T16:29:28.538Z,30.57
2023-02-25T16:30:28.494Z,29.29
2023-02-25T16:31:28.475Z,30.15
2023-02-25T16:32:28.392Z,29.25
2023-02-25T16:33:28.292Z,28.76
2023-02-25T16:34:28.229Z,29.77
2023-02-25T16:35:28.173Z,30.06
2023-02-25T16:36:28.111Z,27.57
2023-02-25T16:37:28.044Z,30.82
2023-02-25T16:38:27.982Z,30.82
2023-02-25T16:39:27.931Z,30.27
2023-02-25T16:40:27.939Z,31.57
2023-02-25T16:41:33.383Z,29.05
2023-02-25T16:42:28.691Z,29.23
2023-02-25T16:43:27.593Z,29.30
2023-02-25T16:44:27.481Z,29.84
2023-02-25T16:45:27.401Z,29.83
2023-02-25T16:46:27.254Z,28.21
2023-02-25T16:47:27.160Z,31.59
2023-02-25T16:48:27.046Z,29.06
2023-02-25T16:49:26.948Z,29.52
2023-02-25T16:50:26.843Z,29.53
2023-02-25T16:51:26.905Z,31.59
2023-02-25T16:52:26.644Z,29.48
2023-02-25T16:53:26.561Z,31.27
2023-02-25T16:54:26.449Z,30.86
2023-02-25T16:55:26.385Z,28.15
2023-02-25T16:56:26.533Z,31.84
2023-02-25T16:57:26.277Z,29.16
2023-02-25T16:58:26.214Z,29.72
2023-02-25T16:59:26.142Z,28.55
2023-02-25T17:00:26.165Z,31.85
2023-02-25T17:01:26.047Z,32.93
2023-02-25T17:02:26.030Z,29.24
2023-02-25T17:56:23.233Z,27.93
2023-02-25T17:57:22.713Z,29.46
2023-02-25T17:58:22.654Z,31.04
2023-02-25T17:59:22.604Z,29.95
2023-02-25T18:00:22.539Z,28.19
2023-02-25T18:01:22.494Z,29.46
2023-02-25T18:02:22.440Z,26.26
2023-02-25T18:03:22.375Z,30.33
2023-02-25T18:04:22.326Z,26.95
2023-02-25T18:05:22.253Z,31.84
2023-02-25T18:06:22.406Z,27.23
2023-02-25T18:07:22.147Z,27.65
2023-02-25T18:08:22.088Z,26.23
2023-02-25T18:09:22.028Z,30.17
2023-02-25T18:10:21.965Z,27.43
2023-02-25T18:11:21.994Z,28.90
2023-02-25T18:12:21.844Z,27.29
2023-02-25T18:13:21.794Z,30.83
2023-02-25T18:14:21.722Z,27.96
2023-02-25T18:15:21.684Z,30.34
2023-02-25T18:16:21.713Z,26.51
2023-02-25T18:17:21.547Z,30.45
2023-02-25T18:18:21.496Z,29.36
2023-02-25T18:19:21.438Z,30.47
2023-02-25T18:20:21.380Z,29.73
2023-02-25T18:21:21.326Z,30.15
2023-02-25T18:22:21.271Z,29.79
2023-02-25T18:23:21.265Z,28.37
2023-02-25T18:24:21.150Z,28.25
2023-02-25T18:25:21.094Z,27.84
2023-02-25T18:26:21.045Z,28.97
2023-02-25T18:27:21.383Z,29.47
2023-02-25T18:28:20.957Z,28.93
2023-02-25T18:29:20.872Z,31.58
2023-02-25T18:30:20.811Z,28.05
2023-02-25T18:31:20.906Z,29.47
2023-02-25T18:32:20.741Z,29.11
2023-02-25T18:33:20.640Z,29.80
2023-02-25T18:34:20.584Z,29.24
2023-02-25T18:35:20.525Z,27.32
2023-02-25T18:36:20.469Z,27.18
2023-02-25T18:37:20.402Z,27.34
2023-02-25T18:38:20.332Z,27.61
2023-02-25T18:39:20.276Z,26.41
2023-02-25T18:40:20.285Z,31.26
2023-02-25T18:41:20.158Z,28.55
2023-02-25T18:42:20.091Z,27.48
2023-02-25T18:43:20.045Z,29.84
2023-02-25T18:44:19.981Z,26.39
2023-02-25T18:45:19.940Z,31.08
2023-02-25T18:46:20.408Z,28.35
2023-02-25T18:47:19.827Z,28.65
2023-02-25T18:48:19.757Z,27.21
2023-02-25T18:49:19.776Z,27.39
2023-02-25T18:50:19.651Z,25.00
2023-02-25T18:51:19.618Z,30.35
2023-02-25T18:52:19.547Z,30.83
2023-02-25T18:53:19.482Z,29.66
2023-02-25T18:54:19.423Z,31.95
2023-02-25T18:55:19.463Z,30.55
2023-02-25T18:56:19.321Z,26.78
2023-02-25T18:57:19.263Z,31.04
2023-02-25T18:58:19.189Z,26.15
2023-02-25T18:59:19.131Z,31.98
2023-02-25T19:00:19.074Z,29.63
2023-02-25T19:01:19.132Z,29.47
2023-02-25T19:02:19.964Z,29.11
2023-02-25T19:03:18.917Z,29.29
2023-02-25T19:04:18.862Z,29.52
2023-02-25T19:05:18.805Z,29.28
2023-02-25T19:06:18.749Z,28.92
2023-02-25T19:07:18.748Z,30.96
2023-02-25T19:08:18.627Z,27.36
2023-02-25T19:09:18.656Z,27.65
2023-02-25T19:10:18.514Z,29.33
2023-02-25T19:11:18.460Z,28.69
2023-02-25T19:12:18.403Z,31.03
2023-02-25T19:13:18.349Z,28.81
2023-02-25T19:14:18.318Z,28.99
2023-02-25T19:15:18.244Z,28.07
2023-02-25T19:16:18.216Z,27.96
2023-02-25T19:17:18.142Z,31.18
2023-02-25T19:18:18.075Z,27.09
2023-02-25T19:19:18.030Z,28.07
2023-02-25T19:20:17.960Z,28.06
2023-02-25T19:21:17.902Z,28.29
2023-02-25T19:22:17.851Z,29.88
2023-02-25T19:23:17.809Z,30.06
2023-02-25T19:24:17.748Z,27.50
2023-02-25T19:25:17.684Z,31.48
2023-02-25T19:26:17.642Z,28.48
2023-02-25T19:27:17.564Z,27.89
2023-02-25T19:38:16.960Z,26.76
2023-02-25T19:39:16.926Z,29.63
2023-02-25T19:40:16.894Z,29.69
2023-02-25T19:41:16.783Z,27.99
2023-02-25T19:43:16.679Z,27.43
2023-02-25T19:44:16.623Z,27.38
2023-02-25T19:45:16.615Z,27.44
2023-02-25T19:46:17.508Z,26.07
2023-02-25T19:47:16.473Z,25.78
2023-02-25T19:48:16.399Z,29.52
2023-02-25T19:49:16.349Z,28.14
2023-02-25T19:50:16.292Z,26.37
2023-02-25T19:51:16.300Z,31.35
2023-02-25T19:54:16.059Z,26.98
2023-02-25T19:55:16.025Z,31.09
2023-02-25T19:56:15.944Z,26.62
2023-02-25T21:18:11.598Z,28.71
2023-02-25T21:19:11.545Z,29.39
2023-02-25T21:20:11.490Z,30.56
2023-02-25T21:21:11.431Z,29.21